Terminal Aerodrome Forecast
Issued by NWS Chicago, IL

Home | Current Version | Previous Version | Text Only | Print | Product List | Glossary Off
Versions: 1 2 3 4 5 6 7 8 9 10 11 12 13 14 15 16 17 18 19 20 21 22 23 24 25 26 27 28 29 30 31 32 33 34 35

000
FTUS43 KLOT 251500 AAB
TAFRFD
TAF AMD
KRFD 251559Z 2516/2612 05007KT P6SM OVC060
     FM252200 04008KT 3SM -SN SCT025 BKN040
     FM260000 03009KT 2SM -SN BKN014 OVC020
     FM260600 02011KT 4SM -SN SCT014 OVC020=

USA.gov is the U.S. government's official web portal to all federal, state and local government web resources and services.